sensor_id;sensor_type;location;lat;lon;timestamp;P1;durP1;ratioP1;P2;durP2;ratioP2
20497;SDS011;10407;53.238;10.448;2023-05-10T00:00:07;81.60;;;8.67;;
20497;SDS011;10407;53.238;10.448;2023-05-10T00:02:35;81.30;;;7.73;;
20497;SDS011;10407;53.238;10.448;2023-05-10T00:05:03;80.27;;;7.60;;
20497;SDS011;10407;53.238;10.448;2023-05-10T00:07:31;79.97;;;7.40;;
20497;SDS011;10407;53.238;10.448;2023-05-10T00:09:58;84.00;;;8.00;;
20497;SDS011;10407;53.238;10.448;2023-05-10T00:12:26;80.10;;;8.53;;
20497;SDS011;10407;53.238;10.448;2023-05-10T00:14:54;82.53;;;8.90;;
20497;SDS011;10407;53.238;10.448;2023-05-10T00:17:21;82.30;;;8.30;;
20497;SDS011;10407;53.238;10.448;2023-05-10T00:19:49;85.10;;;10.03;;
20497;SDS011;10407;53.238;10.448;2023-05-10T00:22:16;83.90;;;12.40;;
20497;SDS011;10407;53.238;10.448;2023-05-10T00:24:44;81.90;;;8.93;;
20497;SDS011;10407;53.238;10.448;2023-05-10T00:27:11;83.30;;;13.80;;
20497;SDS011;10407;53.238;10.448;2023-05-10T00:29:39;81.37;;;7.87;;
20497;SDS011;10407;53.238;10.448;2023-05-10T00:32:06;81.73;;;8.20;;
20497;SDS011;10407;53.238;10.448;2023-05-10T00:34:34;84.07;;;10.23;;
20497;SDS011;10407;53.238;10.448;2023-05-10T00:37:02;81.60;;;9.03;;
20497;SDS011;10407;53.238;10.448;2023-05-10T00:39:29;83.27;;;7.70;;
20497;SDS011;10407;53.238;10.448;2023-05-10T00:41:57;82.20;;;7.40;;
20497;SDS011;10407;53.238;10.448;2023-05-10T00:44:25;83.73;;;7.03;;
20497;SDS011;10407;53.238;10.448;2023-05-10T00:46:53;80.80;;;8.00;;
20497;SDS011;10407;53.238;10.448;2023-05-10T00:49:21;78.90;;;7.80;;
20497;SDS011;10407;53.238;10.448;2023-05-10T00:51:48;81.47;;;8.77;;
20497;SDS011;10407;53.238;10.448;2023-05-10T00:54:16;83.70;;;8.60;;
20497;SDS011;10407;53.238;10.448;2023-05-10T00:56:44;82.30;;;8.43;;
20497;SDS011;10407;53.238;10.448;2023-05-10T00:59:14;79.97;;;7.33;;
20497;SDS011;10407;53.238;10.448;2023-05-10T01:01:46;81.90;;;8.47;;
20497;SDS011;10407;53.238;10.448;2023-05-10T01:04:14;79.17;;;7.80;;
20497;SDS011;10407;53.238;10.448;2023-05-10T01:06:42;82.53;;;7.47;;
20497;SDS011;10407;53.238;10.448;2023-05-10T01:09:09;79.17;;;7.83;;
20497;SDS011;10407;53.238;10.448;2023-05-10T01:11:38;82.87;;;7.97;;
20497;SDS011;10407;53.238;10.448;2023-05-10T01:14:06;83.73;;;10.13;;
20497;SDS011;10407;53.238;10.448;2023-05-10T01:16:36;85.37;;;10.40;;
20497;SDS011;10407;53.238;10.448;2023-05-10T01:19:17;83.37;;;7.63;;
20497;SDS011;10407;53.238;10.448;2023-05-10T01:24:53;85.67;;;9.83;;
20497;SDS011;10407;53.238;10.448;2023-05-10T01:30:04;79.40;;;7.63;;
20497;SDS011;10407;53.238;10.448;2023-05-10T01:35:32;79.27;;;7.37;;
20497;SDS011;10407;53.238;10.448;2023-05-10T01:38:17;81.60;;;9.10;;
20497;SDS011;10407;53.238;10.448;2023-05-10T01:43:38;81.67;;;8.30;;
20497;SDS011;10407;53.238;10.448;2023-05-10T01:46:17;82.10;;;7.80;;
20497;SDS011;10407;53.238;10.448;2023-05-10T01:48:47;80.20;;;8.33;;
20497;SDS011;10407;53.238;10.448;2023-05-10T01:51:19;79.47;;;8.03;;
20497;SDS011;10407;53.238;10.448;2023-05-10T01:53:51;80.93;;;7.63;;
20497;SDS011;10407;53.238;10.448;2023-05-10T01:56:22;80.83;;;7.40;;
20497;SDS011;10407;53.238;10.448;2023-05-10T01:58:52;82.83;;;9.30;;
20497;SDS011;10407;53.238;10.448;2023-05-10T02:01:21;80.90;;;9.33;;
20497;SDS011;10407;53.238;10.448;2023-05-10T02:03:51;81.73;;;8.07;;
20497;SDS011;10407;53.238;10.448;2023-05-10T02:06:21;80.33;;;8.17;;
20497;SDS011;10407;53.238;10.448;2023-05-10T02:08:50;82.20;;;7.90;;
20497;SDS011;10407;53.238;10.448;2023-05-10T02:11:20;80.67;;;8.10;;
20497;SDS011;10407;53.238;10.448;2023-05-10T02:13:49;80.07;;;8.60;;
20497;SDS011;10407;53.238;10.448;2023-05-10T02:16:18;79.10;;;7.37;;
20497;SDS011;10407;53.238;10.448;2023-05-10T02:18:48;85.80;;;8.63;;
20497;SDS011;10407;53.238;10.448;2023-05-10T02:21:17;80.47;;;8.20;;
20497;SDS011;10407;53.238;10.448;2023-05-10T02:23:48;84.87;;;7.90;;
20497;SDS011;10407;53.238;10.448;2023-05-10T02:26:17;88.77;;;8.40;;
20497;SDS011;10407;53.238;10.448;2023-05-10T02:28:47;80.00;;;8.27;;
20497;SDS011;10407;53.238;10.448;2023-05-10T02:31:15;83.57;;;8.60;;
20497;SDS011;10407;53.238;10.448;2023-05-10T02:33:44;86.87;;;9.50;;
20497;SDS011;10407;53.238;10.448;2023-05-10T02:36:14;84.67;;;9.07;;
20497;SDS011;10407;53.238;10.448;2023-05-10T02:38:43;80.90;;;7.43;;
20497;SDS011;10407;53.238;10.448;2023-05-10T02:41:12;88.17;;;9.07;;
20497;SDS011;10407;53.238;10.448;2023-05-10T02:43:40;81.30;;;8.20;;
20497;SDS011;10407;53.238;10.448;2023-05-10T02:46:10;80.50;;;8.77;;
20497;SDS011;10407;53.238;10.448;2023-05-10T02:48:37;83.80;;;8.57;;
20497;SDS011;10407;53.238;10.448;2023-05-10T02:51:05;81.77;;;9.93;;
20497;SDS011;10407;53.238;10.448;2023-05-10T02:53:35;80.50;;;8.90;;
20497;SDS011;10407;53.238;10.448;2023-05-10T02:58:53;81.60;;;9.07;;
20497;SDS011;10407;53.238;10.448;2023-05-10T03:01:22;81.67;;;8.10;;
20497;SDS011;10407;53.238;10.448;2023-05-10T03:03:50;84.03;;;7.70;;
20497;SDS011;10407;53.238;10.448;2023-05-10T03:06:17;86.10;;;7.87;;
20497;SDS011;10407;53.238;10.448;2023-05-10T03:08:45;80.40;;;7.83;;
20497;SDS011;10407;53.238;10.448;2023-05-10T03:13:56;80.30;;;7.93;;
20497;SDS011;10407;53.238;10.448;2023-05-10T03:16:25;82.03;;;7.93;;
20497;SDS011;10407;53.238;10.448;2023-05-10T03:19:06;83.47;;;8.27;;
20497;SDS011;10407;53.238;10.448;2023-05-10T03:21:35;82.90;;;8.60;;
20497;SDS011;10407;53.238;10.448;2023-05-10T03:24:07;81.00;;;7.23;;
20497;SDS011;10407;53.238;10.448;2023-05-10T03:26:37;81.67;;;9.33;;
20497;SDS011;10407;53.238;10.448;2023-05-10T03:29:06;82.13;;;9.13;;
20497;SDS011;10407;53.238;10.448;2023-05-10T03:31:35;80.73;;;8.40;;
20497;SDS011;10407;53.238;10.448;2023-05-10T03:34:02;82.67;;;8.13;;
20497;SDS011;10407;53.238;10.448;2023-05-10T03:36:30;79.73;;;8.60;;
20497;SDS011;10407;53.238;10.448;2023-05-10T03:38:57;80.20;;;8.50;;
20497;SDS011;10407;53.238;10.448;2023-05-10T03:41:25;81.27;;;8.77;;
20497;SDS011;10407;53.238;10.448;2023-05-10T03:43:53;84.27;;;8.60;;
20497;SDS011;10407;53.238;10.448;2023-05-10T03:46:20;83.70;;;8.90;;
20497;SDS011;10407;53.238;10.448;2023-05-10T03:48:48;81.83;;;8.10;;
20497;SDS011;10407;53.238;10.448;2023-05-10T03:51:15;81.97;;;8.93;;
20497;SDS011;10407;53.238;10.448;2023-05-10T03:53:43;85.17;;;8.20;;
20497;SDS011;10407;53.238;10.448;2023-05-10T03:56:11;82.80;;;9.13;;
20497;SDS011;10407;53.238;10.448;2023-05-10T03:58:38;80.07;;;9.03;;
20497;SDS011;10407;53.238;10.448;2023-05-10T04:01:06;82.27;;;8.90;;
20497;SDS011;10407;53.238;10.448;2023-05-10T04:03:33;79.70;;;9.07;;
20497;SDS011;10407;53.238;10.448;2023-05-10T04:06:02;85.17;;;9.97;;
20497;SDS011;10407;53.238;10.448;2023-05-10T04:08:29;81.70;;;7.60;;
20497;SDS011;10407;53.238;10.448;2023-05-10T04:11:11;83.33;;;7.90;;
20497;SDS011;10407;53.238;10.448;2023-05-10T04:13:39;85.13;;;8.20;;
20497;SDS011;10407;53.238;10.448;2023-05-10T04:16:08;83.07;;;8.20;;
20497;SDS011;10407;53.238;10.448;2023-05-10T04:18:36;79.40;;;7.30;;
20497;SDS011;10407;53.238;10.448;2023-05-10T04:21:03;80.97;;;8.03;;
20497;SDS011;10407;53.238;10.448;2023-05-10T04:23:31;83.17;;;8.23;;
20497;SDS011;10407;53.238;10.448;2023-05-10T04:25:59;83.10;;;8.53;;
20497;SDS011;10407;53.238;10.448;2023-05-10T04:28:27;85.50;;;9.20;;
20497;SDS011;10407;53.238;10.448;2023-05-10T04:31:02;81.70;;;8.43;;
20497;SDS011;10407;53.238;10.448;2023-05-10T04:33:30;81.07;;;8.10;;
20497;SDS011;10407;53.238;10.448;2023-05-10T04:35:58;81.37;;;7.87;;
20497;SDS011;10407;53.238;10.448;2023-05-10T04:38:26;80.50;;;7.50;;
20497;SDS011;10407;53.238;10.448;2023-05-10T04:40:54;83.80;;;7.60;;
20497;SDS011;10407;53.238;10.448;2023-05-10T04:43:23;79.47;;;7.70;;
20497;SDS011;10407;53.238;10.448;2023-05-10T04:45:50;86.37;;;8.30;;
20497;SDS011;10407;53.238;10.448;2023-05-10T04:48:18;85.40;;;7.93;;
20497;SDS011;10407;53.238;10.448;2023-05-10T04:50:46;82.90;;;8.97;;
20497;SDS011;10407;53.238;10.448;2023-05-10T04:53:13;84.00;;;9.40;;
20497;SDS011;10407;53.238;10.448;2023-05-10T04:55:41;83.07;;;9.07;;
20497;SDS011;10407;53.238;10.448;2023-05-10T04:58:08;82.07;;;9.00;;
20497;SDS011;10407;53.238;10.448;2023-05-10T05:00:36;81.53;;;8.70;;
20497;SDS011;10407;53.238;10.448;2023-05-10T05:03:03;81.93;;;7.40;;
20497;SDS011;10407;53.238;10.448;2023-05-10T05:05:32;85.00;;;8.67;;
20497;SDS011;10407;53.238;10.448;2023-05-10T05:07:59;79.90;;;7.30;;
20497;SDS011;10407;53.238;10.448;2023-05-10T05:10:27;82.90;;;8.83;;
20497;SDS011;10407;53.238;10.448;2023-05-10T05:12:54;80.17;;;7.63;;
20497;SDS011;10407;53.238;10.448;2023-05-10T05:15:22;80.57;;;8.00;;
20497;SDS011;10407;53.238;10.448;2023-05-10T05:17:49;81.40;;;7.80;;
20497;SDS011;10407;53.238;10.448;2023-05-10T05:20:17;83.57;;;9.03;;
20497;SDS011;10407;53.238;10.448;2023-05-10T05:22:45;82.30;;;8.90;;
20497;SDS011;10407;53.238;10.448;2023-05-10T05:25:12;81.40;;;8.03;;
20497;SDS011;10407;53.238;10.448;2023-05-10T05:27:41;82.20;;;8.73;;
20497;SDS011;10407;53.238;10.448;2023-05-10T05:30:08;81.37;;;8.07;;
20497;SDS011;10407;53.238;10.448;2023-05-10T05:32:36;82.20;;;9.50;;
20497;SDS011;10407;53.238;10.448;2023-05-10T05:35:04;83.20;;;8.40;;
20497;SDS011;10407;53.238;10.448;2023-05-10T05:37:32;82.00;;;7.00;;
20497;SDS011;10407;53.238;10.448;2023-05-10T05:40:00;85.03;;;7.50;;
20497;SDS011;10407;53.238;10.448;2023-05-10T05:42:27;83.13;;;8.50;;
20497;SDS011;10407;53.238;10.448;2023-05-10T05:44:55;80.77;;;7.47;;
20497;SDS011;10407;53.238;10.448;2023-05-10T05:47:23;84.57;;;8.27;;
20497;SDS011;10407;53.238;10.448;2023-05-10T05:49:50;81.97;;;8.37;;
20497;SDS011;10407;53.238;10.448;2023-05-10T05:52:18;85.00;;;7.83;;
20497;SDS011;10407;53.238;10.448;2023-05-10T05:54:46;82.50;;;8.47;;
20497;SDS011;10407;53.238;10.448;2023-05-10T05:57:14;83.07;;;7.80;;
20497;SDS011;10407;53.238;10.448;2023-05-10T05:59:41;81.80;;;9.03;;
20497;SDS011;10407;53.238;10.448;2023-05-10T06:02:09;82.23;;;10.23;;
20497;SDS011;10407;53.238;10.448;2023-05-10T06:04:37;83.57;;;7.33;;
20497;SDS011;10407;53.238;10.448;2023-05-10T06:07:05;82.40;;;8.03;;
20497;SDS011;10407;53.238;10.448;2023-05-10T06:09:32;80.00;;;7.00;;
20497;SDS011;10407;53.238;10.448;2023-05-10T06:12:00;84.57;;;8.00;;
20497;SDS011;10407;53.238;10.448;2023-05-10T06:14:27;81.17;;;7.30;;
20497;SDS011;10407;53.238;10.448;2023-05-10T06:16:55;81.97;;;8.10;;
20497;SDS011;10407;53.238;10.448;2023-05-10T06:19:22;79.97;;;7.20;;
20497;SDS011;10407;53.238;10.448;2023-05-10T06:21:50;81.30;;;9.03;;
20497;SDS011;10407;53.238;10.448;2023-05-10T06:24:18;81.30;;;8.33;;
20497;SDS011;10407;53.238;10.448;2023-05-10T06:26:45;86.67;;;9.07;;
20497;SDS011;10407;53.238;10.448;2023-05-10T06:29:14;82.20;;;9.30;;
20497;SDS011;10407;53.238;10.448;2023-05-10T06:31:42;80.77;;;7.50;;
20497;SDS011;10407;53.238;10.448;2023-05-10T06:34:10;137.80;;;11.93;;
20497;SDS011;10407;53.238;10.448;2023-05-10T06:36:37;82.93;;;8.63;;
20497;SDS011;10407;53.238;10.448;2023-05-10T06:39:05;81.83;;;7.90;;
20497;SDS011;10407;53.238;10.448;2023-05-10T06:41:33;82.70;;;7.90;;
20497;SDS011;10407;53.238;10.448;2023-05-10T06:44:00;82.60;;;8.87;;
20497;SDS011;10407;53.238;10.448;2023-05-10T06:46:29;80.23;;;7.90;;
20497;SDS011;10407;53.238;10.448;2023-05-10T06:48:57;82.50;;;8.47;;
20497;SDS011;10407;53.238;10.448;2023-05-10T06:51:24;82.77;;;8.57;;
20497;SDS011;10407;53.238;10.448;2023-05-10T06:53:51;83.50;;;8.47;;
20497;SDS011;10407;53.238;10.448;2023-05-10T06:56:19;80.93;;;8.43;;
20497;SDS011;10407;53.238;10.448;2023-05-10T06:58:47;80.67;;;8.20;;
20497;SDS011;10407;53.238;10.448;2023-05-10T07:01:15;84.97;;;9.07;;
20497;SDS011;10407;53.238;10.448;2023-05-10T07:03:42;82.07;;;8.93;;
20497;SDS011;10407;53.238;10.448;2023-05-10T07:06:10;80.60;;;8.00;;
20497;SDS011;10407;53.238;10.448;2023-05-10T07:08:37;82.27;;;8.70;;
20497;SDS011;10407;53.238;10.448;2023-05-10T07:11:05;80.20;;;8.00;;
20497;SDS011;10407;53.238;10.448;2023-05-10T07:13:33;81.47;;;8.27;;
20497;SDS011;10407;53.238;10.448;2023-05-10T07:16:02;81.30;;;8.07;;
20497;SDS011;10407;53.238;10.448;2023-05-10T07:18:30;81.63;;;8.40;;
20497;SDS011;10407;53.238;10.448;2023-05-10T07:20:57;84.93;;;8.90;;
20497;SDS011;10407;53.238;10.448;2023-05-10T07:23:25;82.57;;;8.50;;
20497;SDS011;10407;53.238;10.448;2023-05-10T07:25:52;83.63;;;7.83;;
20497;SDS011;10407;53.238;10.448;2023-05-10T07:28:20;82.10;;;8.00;;
20497;SDS011;10407;53.238;10.448;2023-05-10T07:30:48;82.23;;;7.67;;
20497;SDS011;10407;53.238;10.448;2023-05-10T07:33:16;82.03;;;8.27;;
20497;SDS011;10407;53.238;10.448;2023-05-10T07:35:43;81.03;;;7.90;;
20497;SDS011;10407;53.238;10.448;2023-05-10T07:38:11;80.77;;;7.40;;
20497;SDS011;10407;53.238;10.448;2023-05-10T07:40:38;83.17;;;9.07;;
20497;SDS011;10407;53.238;10.448;2023-05-10T07:43:06;82.20;;;8.00;;
20497;SDS011;10407;53.238;10.448;2023-05-10T07:45:34;81.50;;;7.83;;
20497;SDS011;10407;53.238;10.448;2023-05-10T07:48:01;81.13;;;7.63;;
20497;SDS011;10407;53.238;10.448;2023-05-10T07:50:30;80.43;;;8.13;;
20497;SDS011;10407;53.238;10.448;2023-05-10T07:52:57;85.23;;;8.27;;
20497;SDS011;10407;53.238;10.448;2023-05-10T07:55:25;82.10;;;7.27;;
20497;SDS011;10407;53.238;10.448;2023-05-10T07:57:52;81.30;;;8.73;;
20497;SDS011;10407;53.238;10.448;2023-05-10T08:00:20;81.20;;;7.77;;
20497;SDS011;10407;53.238;10.448;2023-05-10T08:02:47;83.40;;;7.60;;
20497;SDS011;10407;53.238;10.448;2023-05-10T08:05:15;84.43;;;8.13;;
20497;SDS011;10407;53.238;10.448;2023-05-10T08:07:43;81.03;;;8.10;;
20497;SDS011;10407;53.238;10.448;2023-05-10T08:10:10;80.50;;;6.87;;
20497;SDS011;10407;53.238;10.448;2023-05-10T08:12:38;80.57;;;7.23;;
20497;SDS011;10407;53.238;10.448;2023-05-10T08:15:06;81.90;;;6.80;;
20497;SDS011;10407;53.238;10.448;2023-05-10T08:17:34;80.50;;;8.80;;
20497;SDS011;10407;53.238;10.448;2023-05-10T08:20:02;93.63;;;30.00;;
20497;SDS011;10407;53.238;10.448;2023-05-10T08:22:30;93.17;;;30.20;;
20497;SDS011;10407;53.238;10.448;2023-05-10T08:24:57;95.80;;;30.70;;
20497;SDS011;10407;53.238;10.448;2023-05-10T08:27:25;86.80;;;20.60;;
20497;SDS011;10407;53.238;10.448;2023-05-10T08:29:53;83.07;;;9.30;;
20497;SDS011;10407;53.238;10.448;2023-05-10T08:32:20;80.60;;;8.00;;
20497;SDS011;10407;53.238;10.448;2023-05-10T08:34:48;81.67;;;7.83;;
20497;SDS011;10407;53.238;10.448;2023-05-10T08:37:15;84.40;;;8.50;;
20497;SDS011;10407;53.238;10.448;2023-05-10T08:39:43;82.20;;;9.60;;
20497;SDS011;10407;53.238;10.448;2023-05-10T08:42:12;83.07;;;8.50;;
20497;SDS011;10407;53.238;10.448;2023-05-10T08:44:43;82.90;;;7.83;;
20497;SDS011;10407;53.238;10.448;2023-05-10T08:47:11;87.50;;;11.67;;
20497;SDS011;10407;53.238;10.448;2023-05-10T08:49:41;82.07;;;8.97;;
20497;SDS011;10407;53.238;10.448;2023-05-10T08:52:10;81.57;;;9.33;;
20497;SDS011;10407;53.238;10.448;2023-05-10T08:54:39;82.57;;;9.73;;
20497;SDS011;10407;53.238;10.448;2023-05-10T08:57:07;85.87;;;10.40;;
20497;SDS011;10407;53.238;10.448;2023-05-10T08:59:35;81.10;;;8.60;;
20497;SDS011;10407;53.238;10.448;2023-05-10T09:02:05;80.70;;;7.97;;
20497;SDS011;10407;53.238;10.448;2023-05-10T09:04:33;83.00;;;10.57;;
20497;SDS011;10407;53.238;10.448;2023-05-10T09:07:00;82.40;;;10.33;;
20497;SDS011;10407;53.238;10.448;2023-05-10T09:09:28;90.30;;;15.73;;
20497;SDS011;10407;53.238;10.448;2023-05-10T09:11:56;86.20;;;9.23;;
20497;SDS011;10407;53.238;10.448;2023-05-10T09:14:24;86.97;;;11.50;;
20497;SDS011;10407;53.238;10.448;2023-05-10T09:16:52;82.93;;;9.60;;
20497;SDS011;10407;53.238;10.448;2023-05-10T09:19:21;82.57;;;10.87;;
20497;SDS011;10407;53.238;10.448;2023-05-10T09:21:48;82.10;;;10.83;;
20497;SDS011;10407;53.238;10.448;2023-05-10T09:24:16;91.17;;;19.90;;
20497;SDS011;10407;53.238;10.448;2023-05-10T09:26:47;89.90;;;16.63;;
20497;SDS011;10407;53.238;10.448;2023-05-10T09:29:15;87.07;;;15.07;;
20497;SDS011;10407;53.238;10.448;2023-05-10T09:31:47;86.00;;;15.00;;
20497;SDS011;10407;53.238;10.448;2023-05-10T09:34:17;86.77;;;16.77;;
20497;SDS011;10407;53.238;10.448;2023-05-10T09:36:56;86.90;;;19.20;;
20497;SDS011;10407;53.238;10.448;2023-05-10T09:39:33;85.47;;;14.10;;
20497;SDS011;10407;53.238;10.448;2023-05-10T09:42:03;88.20;;;14.67;;
20497;SDS011;10407;53.238;10.448;2023-05-10T09:44:33;88.67;;;16.40;;
20497;SDS011;10407;53.238;10.448;2023-05-10T09:47:02;87.07;;;17.73;;
20497;SDS011;10407;53.238;10.448;2023-05-10T09:49:30;91.97;;;26.57;;
20497;SDS011;10407;53.238;10.448;2023-05-10T09:52:03;91.97;;;25.23;;
20497;SDS011;10407;53.238;10.448;2023-05-10T09:54:32;94.33;;;29.93;;
20497;SDS011;10407;53.238;10.448;2023-05-10T09:57:00;98.40;;;36.57;;
20497;SDS011;10407;53.238;10.448;2023-05-10T09:59:29;99.90;;;34.03;;
20497;SDS011;10407;53.238;10.448;2023-05-10T10:01:57;103.03;;;40.90;;
20497;SDS011;10407;53.238;10.448;2023-05-10T10:04:26;98.67;;;38.47;;
20497;SDS011;10407;53.238;10.448;2023-05-10T10:07:03;107.07;;;53.17;;
20497;SDS011;10407;53.238;10.448;2023-05-10T10:09:31;117.50;;;57.73;;
20497;SDS011;10407;53.238;10.448;2023-05-10T10:12:01;95.63;;;35.43;;
20497;SDS011;10407;53.238;10.448;2023-05-10T10:14:30;105.97;;;47.73;;
20497;SDS011;10407;53.238;10.448;2023-05-10T10:16:58;112.83;;;62.30;;
20497;SDS011;10407;53.238;10.448;2023-05-10T10:19:27;106.93;;;44.27;;
20497;SDS011;10407;53.238;10.448;2023-05-10T10:21:56;96.73;;;25.10;;
20497;SDS011;10407;53.238;10.448;2023-05-10T10:24:24;97.60;;;20.13;;
20497;SDS011;10407;53.238;10.448;2023-05-10T10:26:52;89.93;;;18.63;;
20497;SDS011;10407;53.238;10.448;2023-05-10T10:29:26;84.77;;;11.73;;
20497;SDS011;10407;53.238;10.448;2023-05-10T10:34:32;82.80;;;10.80;;
20497;SDS011;10407;53.238;10.448;2023-05-10T10:37:04;86.00;;;11.50;;
20497;SDS011;10407;53.238;10.448;2023-05-10T10:39:32;84.37;;;12.63;;
20497;SDS011;10407;53.238;10.448;2023-05-10T10:42:02;91.90;;;24.67;;
20497;SDS011;10407;53.238;10.448;2023-05-10T10:47:05;97.07;;;27.77;;
20497;SDS011;10407;53.238;10.448;2023-05-10T10:49:45;103.23;;;42.10;;
20497;SDS011;10407;53.238;10.448;2023-05-10T10:54:52;97.73;;;32.77;;
20497;SDS011;10407;53.238;10.448;2023-05-10T10:57:21;110.27;;;48.00;;
20497;SDS011;10407;53.238;10.448;2023-05-10T10:59:49;99.27;;;36.83;;
20497;SDS011;10407;53.238;10.448;2023-05-10T11:02:39;91.37;;;13.10;;
20497;SDS011;10407;53.238;10.448;2023-05-10T11:08:08;90.60;;;13.27;;
20497;SDS011;10407;53.238;10.448;2023-05-10T11:10:38;88.27;;;12.40;;
20497;SDS011;10407;53.238;10.448;2023-05-10T11:13:07;89.73;;;14.37;;
20497;SDS011;10407;53.238;10.448;2023-05-10T11:15:36;93.10;;;15.10;;
20497;SDS011;10407;53.238;10.448;2023-05-10T11:18:19;85.87;;;12.50;;
20497;SDS011;10407;53.238;10.448;2023-05-10T11:20:52;107.60;;;18.30;;
20497;SDS011;10407;53.238;10.448;2023-05-10T11:23:21;89.93;;;15.37;;
20497;SDS011;10407;53.238;10.448;2023-05-10T11:25:49;86.50;;;12.47;;
20497;SDS011;10407;53.238;10.448;2023-05-10T11:28:17;86.47;;;13.37;;
20497;SDS011;10407;53.238;10.448;2023-05-10T11:30:45;85.60;;;12.87;;
20497;SDS011;10407;53.238;10.448;2023-05-10T11:33:17;87.00;;;11.70;;
20497;SDS011;10407;53.238;10.448;2023-05-10T11:35:45;86.60;;;11.77;;
20497;SDS011;10407;53.238;10.448;2023-05-10T11:38:13;82.10;;;8.97;;
20497;SDS011;10407;53.238;10.448;2023-05-10T11:40:41;84.17;;;11.23;;
20497;SDS011;10407;53.238;10.448;2023-05-10T11:43:09;84.40;;;10.77;;
20497;SDS011;10407;53.238;10.448;2023-05-10T11:45:37;83.60;;;10.77;;
20497;SDS011;10407;53.238;10.448;2023-05-10T11:48:04;85.63;;;11.33;;
20497;SDS011;10407;53.238;10.448;2023-05-10T11:50:32;84.60;;;11.87;;
20497;SDS011;10407;53.238;10.448;2023-05-10T11:53:00;84.57;;;12.17;;
20497;SDS011;10407;53.238;10.448;2023-05-10T11:55:27;86.80;;;11.53;;
20497;SDS011;10407;53.238;10.448;2023-05-10T11:57:59;84.17;;;11.50;;
20497;SDS011;10407;53.238;10.448;2023-05-10T12:00:27;84.57;;;11.47;;
20497;SDS011;10407;53.238;10.448;2023-05-10T12:02:55;85.07;;;9.60;;
20497;SDS011;10407;53.238;10.448;2023-05-10T12:05:23;85.50;;;11.20;;
20497;SDS011;10407;53.238;10.448;2023-05-10T12:07:51;83.80;;;10.70;;
20497;SDS011;10407;53.238;10.448;2023-05-10T12:10:24;89.20;;;11.57;;
20497;SDS011;10407;53.238;10.448;2023-05-10T12:12:51;85.67;;;11.10;;
20497;SDS011;10407;53.238;10.448;2023-05-10T12:15:23;84.70;;;9.67;;
20497;SDS011;10407;53.238;10.448;2023-05-10T12:17:51;83.80;;;10.20;;
20497;SDS011;10407;53.238;10.448;2023-05-10T12:20:22;86.20;;;10.10;;
20497;SDS011;10407;53.238;10.448;2023-05-10T12:22:51;83.87;;;10.40;;
20497;SDS011;10407;53.238;10.448;2023-05-10T12:25:21;86.00;;;10.67;;
20497;SDS011;10407;53.238;10.448;2023-05-10T12:27:51;87.27;;;11.87;;
20497;SDS011;10407;53.238;10.448;2023-05-10T12:30:26;86.57;;;12.90;;
20497;SDS011;10407;53.238;10.448;2023-05-10T12:32:51;85.27;;;12.10;;
20497;SDS011;10407;53.238;10.448;2023-05-10T12:35:20;86.93;;;12.53;;
20497;SDS011;10407;53.238;10.448;2023-05-10T12:37:52;86.47;;;12.83;;
20497;SDS011;10407;53.238;10.448;2023-05-10T12:40:20;86.57;;;12.93;;
20497;SDS011;10407;53.238;10.448;2023-05-10T12:42:47;86.03;;;10.87;;
20497;SDS011;10407;53.238;10.448;2023-05-10T12:45:15;86.80;;;12.00;;
20497;SDS011;10407;53.238;10.448;2023-05-10T12:47:44;84.97;;;10.37;;
20497;SDS011;10407;53.238;10.448;2023-05-10T12:50:12;86.17;;;11.20;;
20497;SDS011;10407;53.238;10.448;2023-05-10T12:52:39;86.30;;;12.83;;
20497;SDS011;10407;53.238;10.448;2023-05-10T12:55:07;86.47;;;11.57;;
20497;SDS011;10407;53.238;10.448;2023-05-10T12:57:35;87.03;;;12.00;;
20497;SDS011;10407;53.238;10.448;2023-05-10T13:00:03;86.27;;;12.20;;
20497;SDS011;10407;53.238;10.448;2023-05-10T13:02:31;86.00;;;11.63;;
20497;SDS011;10407;53.238;10.448;2023-05-10T13:04:59;85.10;;;12.10;;
20497;SDS011;10407;53.238;10.448;2023-05-10T13:07:27;84.20;;;10.93;;
20497;SDS011;10407;53.238;10.448;2023-05-10T13:09:54;85.77;;;11.50;;
20497;SDS011;10407;53.238;10.448;2023-05-10T13:12:22;92.47;;;12.03;;
20497;SDS011;10407;53.238;10.448;2023-05-10T13:14:49;84.10;;;9.53;;
20497;SDS011;10407;53.238;10.448;2023-05-10T13:17:17;83.20;;;10.67;;
20497;SDS011;10407;53.238;10.448;2023-05-10T13:19:44;83.03;;;9.60;;
20497;SDS011;10407;53.238;10.448;2023-05-10T13:22:12;85.30;;;10.43;;
20497;SDS011;10407;53.238;10.448;2023-05-10T13:24:39;82.40;;;9.77;;
20497;SDS011;10407;53.238;10.448;2023-05-10T13:27:07;82.17;;;9.00;;
20497;SDS011;10407;53.238;10.448;2023-05-10T13:29:34;83.20;;;9.40;;
20497;SDS011;10407;53.238;10.448;2023-05-10T13:32:02;84.00;;;8.83;;
20497;SDS011;10407;53.238;10.448;2023-05-10T13:34:29;82.27;;;9.50;;
20497;SDS011;10407;53.238;10.448;2023-05-10T13:36:57;81.50;;;9.13;;
20497;SDS011;10407;53.238;10.448;2023-05-10T13:39:25;82.87;;;9.97;;
20497;SDS011;10407;53.238;10.448;2023-05-10T13:41:52;81.57;;;8.67;;
20497;SDS011;10407;53.238;10.448;2023-05-10T13:44:20;80.60;;;7.37;;
20497;SDS011;10407;53.238;10.448;2023-05-10T13:46:48;81.33;;;7.80;;
20497;SDS011;10407;53.238;10.448;2023-05-10T13:49:15;80.97;;;7.73;;
20497;SDS011;10407;53.238;10.448;2023-05-10T13:51:43;81.00;;;8.67;;
20497;SDS011;10407;53.238;10.448;2023-05-10T13:54:10;82.20;;;9.33;;
20497;SDS011;10407;53.238;10.448;2023-05-10T13:56:38;82.00;;;8.60;;
20497;SDS011;10407;53.238;10.448;2023-05-10T13:59:06;80.43;;;8.00;;
20497;SDS011;10407;53.238;10.448;2023-05-10T14:01:34;80.60;;;8.50;;
20497;SDS011;10407;53.238;10.448;2023-05-10T14:04:02;80.47;;;8.33;;
20497;SDS011;10407;53.238;10.448;2023-05-10T14:06:29;82.47;;;9.03;;
20497;SDS011;10407;53.238;10.448;2023-05-10T14:08:57;80.20;;;7.73;;
20497;SDS011;10407;53.238;10.448;2023-05-10T14:11:24;80.90;;;8.33;;
20497;SDS011;10407;53.238;10.448;2023-05-10T14:13:52;80.43;;;7.57;;
20497;SDS011;10407;53.238;10.448;2023-05-10T14:16:19;80.80;;;8.67;;
20497;SDS011;10407;53.238;10.448;2023-05-10T14:18:47;79.40;;;7.13;;
20497;SDS011;10407;53.238;10.448;2023-05-10T14:21:14;80.97;;;7.17;;
20497;SDS011;10407;53.238;10.448;2023-05-10T14:23:42;79.70;;;7.30;;
20497;SDS011;10407;53.238;10.448;2023-05-10T14:26:09;81.37;;;8.97;;
20497;SDS011;10407;53.238;10.448;2023-05-10T14:28:37;79.47;;;6.73;;
20497;SDS011;10407;53.238;10.448;2023-05-10T14:31:05;79.87;;;7.23;;
20497;SDS011;10407;53.238;10.448;2023-05-10T14:33:32;79.67;;;8.23;;
20497;SDS011;10407;53.238;10.448;2023-05-10T14:36:00;79.17;;;7.30;;
20497;SDS011;10407;53.238;10.448;2023-05-10T14:38:29;81.00;;;8.23;;
20497;SDS011;10407;53.238;10.448;2023-05-10T14:40:56;80.60;;;8.43;;
20497;SDS011;10407;53.238;10.448;2023-05-10T14:43:24;81.40;;;7.47;;
20497;SDS011;10407;53.238;10.448;2023-05-10T14:45:53;83.00;;;7.87;;
20497;SDS011;10407;53.238;10.448;2023-05-10T14:48:20;80.30;;;7.20;;
20497;SDS011;10407;53.238;10.448;2023-05-10T14:50:48;79.73;;;7.10;;
20497;SDS011;10407;53.238;10.448;2023-05-10T14:53:16;82.17;;;7.10;;